createdAt,value
2019-05-20T00:01:38.393Z,71.04
2019-05-20T00:07:00.200Z,70.97
2019-05-20T00:12:21.666Z,71.19
2019-05-20T00:17:43.335Z,72.42
2019-05-20T00:23:05.464Z,72.01
2019-05-20T00:28:27.114Z,72.01
2019-05-20T00:33:49.405Z,71.56
2019-05-20T00:39:20.848Z,71.56
2019-05-20T00:44:42.542Z,70.91
2019-05-20T00:50:04.312Z,71.50
2019-05-20T00:55:28.214Z,71.49
2019-05-20T01:00:50.197Z,70.73
2019-05-20T01:06:12.877Z,71.37
2019-05-20T01:11:34.777Z,71.52
2019-05-20T01:16:56.297Z,72.29
2019-05-20T01:22:18.250Z,72.96
2019-05-20T01:27:40.029Z,73.65
2019-05-20T01:33:13.943Z,73.52
2019-05-20T01:38:28.447Z,73.71
2019-05-20T01:43:49.833Z,74.25
2019-05-20T01:49:11.729Z,75.19
2019-05-20T01:54:33.372Z,75.51
2019-05-20T01:59:54.970Z,75.64
2019-05-20T02:05:16.609Z,76.52
2019-05-20T02:10:40.019Z,77.32
2019-05-20T02:16:05.151Z,78.15
2019-05-20T02:21:26.807Z,79.21
2019-05-20T02:26:48.718Z,79.18
2019-05-20T02:32:10.646Z,78.52
2019-05-20T02:37:32.439Z,79.21
2019-05-20T02:42:54.124Z,79.76
2019-05-20T02:48:15.730Z,80.27
2019-05-20T02:53:37.774Z,80.19
2019-05-20T02:58:59.596Z,80.03
2019-05-20T03:04:21.157Z,80.27
2019-05-20T03:09:42.756Z,80.15
2019-05-20T03:15:05.070Z,80.65
2019-05-20T03:20:26.704Z,80.80
2019-05-20T03:25:48.362Z,81.22
2019-05-20T03:31:09.817Z,81.35
2019-05-20T03:36:31.580Z,81.68
2019-05-20T03:41:52.947Z,81.14
2019-05-20T03:47:14.704Z,80.91
2019-05-20T03:52:36.912Z,80.12
2019-05-20T03:57:58.196Z,79.83
2019-05-20T04:03:19.994Z,79.53
2019-05-20T04:08:41.817Z,78.80
2019-05-20T04:14:03.448Z,78.50
2019-05-20T04:19:25.353Z,78.61
2019-05-20T04:24:47.613Z,77.56
2019-05-20T04:30:09.832Z,77.82
2019-05-20T04:35:31.534Z,76.98
2019-05-20T04:40:53.582Z,76.65
2019-05-20T04:46:15.336Z,76.76
2019-05-20T04:51:36.630Z,77.40
2019-05-20T04:56:58.339Z,76.59
2019-05-20T05:02:20.050Z,75.83
2019-05-20T05:07:41.874Z,74.96
2019-05-20T05:13:03.545Z,74.36
2019-05-20T05:18:25.402Z,73.66
2019-05-20T05:23:58.854Z,72.35
2019-05-20T05:29:10.939Z,72.06
2019-05-20T05:34:32.594Z,71.82
2019-05-20T05:39:54.118Z,71.18
2019-05-20T05:45:15.751Z,70.27
2019-05-20T05:50:37.601Z,67.68
2019-05-20T05:55:59.245Z,66.40
2019-05-20T06:01:20.958Z,64.42
2019-05-20T06:06:42.471Z,65.00
2019-05-20T06:12:04.422Z,62.64
2019-05-20T06:17:26.019Z,62.08
2019-05-20T06:22:47.650Z,61.36
2019-05-20T06:29:03.478Z,61.06
2019-05-20T06:34:25.145Z,60.93
2019-05-20T06:39:46.552Z,59.97
2019-05-20T06:45:09.045Z,58.90
2019-05-20T06:50:30.668Z,58.32
2019-05-20T06:55:52.257Z,57.20
2019-05-20T07:01:13.818Z,56.32
2019-05-20T07:06:45.281Z,55.58
2019-05-20T07:12:00.074Z,53.61
2019-05-20T07:17:21.724Z,54.95
2019-05-20T07:22:55.384Z,54.76
2019-05-20T07:28:06.801Z,54.47
2019-05-20T07:33:28.682Z,54.09
2019-05-20T07:38:50.352Z,54.24
2019-05-20T07:44:12.198Z,52.78
2019-05-20T07:49:34.141Z,53.06
2019-05-20T07:54:57.507Z,50.90
2019-05-20T08:00:18.976Z,51.31
2019-05-20T08:05:41.262Z,50.26
2019-05-20T08:11:03.379Z,50.34
2019-05-20T08:16:24.962Z,51.51
2019-05-20T08:21:46.508Z,48.59
2019-05-20T08:27:08.480Z,48.11
2019-05-20T08:32:29.975Z,50.57
2019-05-20T08:37:51.890Z,48.63
2019-05-20T08:43:14.164Z,50.17
2019-05-20T08:48:35.746Z,52.44
2019-05-20T08:53:57.842Z,50.70
2019-05-20T08:59:20.390Z,51.58
2019-05-20T09:04:42.408Z,50.26
2019-05-20T09:10:05.448Z,50.52
2019-05-20T09:15:28.098Z,50.27
2019-05-20T09:20:50.612Z,49.22
2019-05-20T09:26:12.715Z,51.92
2019-05-20T09:31:34.984Z,49.34
2019-05-20T09:36:56.934Z,49.15
2019-05-20T09:42:18.603Z,44.84
2019-05-20T09:47:40.547Z,47.05
2019-05-20T09:53:06.601Z,46.68
2019-05-20T09:58:25.744Z,46.17
2019-05-20T10:03:47.915Z,48.12
2019-05-20T10:09:09.347Z,45.71
2019-05-20T10:14:31.287Z,45.58
2019-05-20T10:19:52.923Z,45.25
2019-05-20T10:25:15.214Z,45.44
2019-05-20T10:30:37.056Z,45.33
2019-05-20T10:35:58.563Z,45.84
2019-05-20T10:41:19.966Z,44.38
2019-05-20T10:46:41.976Z,46.48
2019-05-20T10:52:03.501Z,45.67
2019-05-20T10:57:24.830Z,41.63
2019-05-20T11:02:46.667Z,41.23
2019-05-20T11:08:08.288Z,41.16
2019-05-20T11:13:29.965Z,39.69
2019-05-20T11:18:51.603Z,41.42
2019-05-20T11:24:13.413Z,41.06
2019-05-20T11:29:35.079Z,41.06
2019-05-20T11:34:57.075Z,42.23
2019-05-20T11:40:20.091Z,43.11
2019-05-20T11:45:42.031Z,42.58
2019-05-20T11:51:07.096Z,42.30
2019-05-20T11:56:29.095Z,40.48
2019-05-20T12:01:50.878Z,39.80
2019-05-20T12:07:12.539Z,39.00
2019-05-20T12:12:35.295Z,38.52
2019-05-20T12:17:57.266Z,40.67
2019-05-20T12:23:21.878Z,39.34
2019-05-20T12:28:45.750Z,41.00
2019-05-20T12:34:07.192Z,40.16
2019-05-20T12:39:28.647Z,39.92
2019-05-20T12:44:50.424Z,40.17
2019-05-20T12:50:12.598Z,39.73
2019-05-20T12:55:34.338Z,40.87
2019-05-20T13:00:56.087Z,38.51
2019-05-20T13:06:17.996Z,37.93
2019-05-20T13:11:39.841Z,38.11
2019-05-20T13:17:01.933Z,38.71
2019-05-20T13:22:23.514Z,39.86
2019-05-20T13:27:45.537Z,40.64
2019-05-20T13:33:07.261Z,36.59
2019-05-20T13:38:28.909Z,33.04
2019-05-20T13:43:50.242Z,33.47
2019-05-20T13:49:12.129Z,32.16
2019-05-20T13:54:34.094Z,32.59
2019-05-20T13:59:55.587Z,31.75
2019-05-20T14:05:18.403Z,30.18
2019-05-20T14:10:40.470Z,28.96
2019-05-20T14:16:02.826Z,28.97
2019-05-20T14:21:25.412Z,29.01
2019-05-20T14:26:47.806Z,28.42
2019-05-20T14:32:09.891Z,29.57
2019-05-20T14:37:31.867Z,30.38
2019-05-20T14:42:53.907Z,31.28
2019-05-20T14:48:15.811Z,29.24
2019-05-20T14:53:38.108Z,27.73
2019-05-20T14:59:00.235Z,28.01
2019-05-20T15:04:22.781Z,27.69
2019-05-20T15:09:44.441Z,28.38
2019-05-20T15:15:06.743Z,27.80
2019-05-20T15:20:28.558Z,28.71
2019-05-20T15:25:50.453Z,30.25
2019-05-20T15:31:12.290Z,30.27
2019-05-20T15:36:34.348Z,30.77
2019-05-20T15:41:56.550Z,31.16
2019-05-20T15:47:19.159Z,30.92
2019-05-20T15:52:42.114Z,34.34
2019-05-20T15:58:04.299Z,36.44
2019-05-20T16:03:26.717Z,37.77
2019-05-20T16:08:48.744Z,38.72
2019-05-20T16:14:10.301Z,38.70
2019-05-20T16:19:32.450Z,38.79
2019-05-20T16:24:54.274Z,39.32
2019-05-20T16:30:16.043Z,40.06
2019-05-20T16:35:38.075Z,41.09
2019-05-20T16:41:00.267Z,41.28
2019-05-20T16:46:23.901Z,42.38
2019-05-20T16:51:45.845Z,42.75
2019-05-20T16:57:07.637Z,43.25
2019-05-20T17:02:29.814Z,43.48
2019-05-20T17:07:51.716Z,48.34
2019-05-20T17:13:13.386Z,51.35
2019-05-20T17:18:35.036Z,53.66
2019-05-20T17:23:56.809Z,54.56
2019-05-20T17:29:18.804Z,55.08
2019-05-20T17:34:40.483Z,55.46
2019-05-20T17:40:03.846Z,54.95
2019-05-20T17:45:25.683Z,54.18
2019-05-20T17:50:47.458Z,53.64
2019-05-20T17:56:08.915Z,53.30
2019-05-20T18:01:30.688Z,53.71
2019-05-20T18:06:52.486Z,53.57
2019-05-20T18:12:13.963Z,53.34
2019-05-20T18:17:35.748Z,53.28
2019-05-20T18:22:57.036Z,53.56
2019-05-20T18:28:18.587Z,53.58
2019-05-20T18:33:40.362Z,53.83
2019-05-20T18:39:04.104Z,52.16
2019-05-20T18:44:25.917Z,51.57
2019-05-20T18:49:47.741Z,51.67
2019-05-20T18:55:09.497Z,51.04
2019-05-20T19:00:31.735Z,51.07
2019-05-20T19:05:53.633Z,51.50
2019-05-20T19:11:15.205Z,52.14
2019-05-20T19:16:37.093Z,52.39
2019-05-20T19:21:58.642Z,52.80
2019-05-20T19:27:20.438Z,53.06
2019-05-20T19:32:42.197Z,53.06
2019-05-20T19:38:04.264Z,53.14
2019-05-20T19:43:26.229Z,53.26
2019-05-20T19:48:47.754Z,53.30
2019-05-20T19:54:10.136Z,56.36
2019-05-20T19:59:32.228Z,59.08
2019-05-20T20:04:54.729Z,58.23
2019-05-20T20:10:16.871Z,57.65
2019-05-20T20:15:39.303Z,57.15
2019-05-20T20:21:01.537Z,56.96
2019-05-20T20:26:23.298Z,56.56
2019-05-20T20:31:45.529Z,56.56
2019-05-20T20:37:07.726Z,56.39
2019-05-20T20:42:29.572Z,56.26
2019-05-20T20:47:51.859Z,56.07
2019-05-20T20:53:14.364Z,56.16
2019-05-20T20:58:37.089Z,56.55
2019-05-20T21:03:58.868Z,57.48
2019-05-20T21:09:20.896Z,58.08
2019-05-20T21:14:42.607Z,58.29
2019-05-20T21:20:05.721Z,59.66
2019-05-20T21:25:28.230Z,59.66
2019-05-20T21:30:50.404Z,60.90
2019-05-20T21:36:12.616Z,62.49
2019-05-20T21:41:34.635Z,63.66
2019-05-20T21:46:56.403Z,64.36
2019-05-20T21:52:18.453Z,63.81
2019-05-20T21:57:40.093Z,63.81
2019-05-20T22:03:02.447Z,64.14
2019-05-20T22:08:24.429Z,64.15
2019-05-20T22:13:46.109Z,65.26
2019-05-20T22:19:08.221Z,65.58
2019-05-20T22:24:30.250Z,65.95
2019-05-20T22:29:52.222Z,66.66
2019-05-20T22:35:14.268Z,67.95
2019-05-20T22:40:36.207Z,68.52
2019-05-20T22:45:58.012Z,68.89
2019-05-20T22:51:20.135Z,68.95
2019-05-20T22:56:42.038Z,69.21
2019-05-20T23:02:04.111Z,69.81
2019-05-20T23:07:25.912Z,70.33
2019-05-20T23:12:48.282Z,70.54
2019-05-20T23:18:10.306Z,70.97
2019-05-20T23:23:32.281Z,70.27
2019-05-20T23:28:53.889Z,70.17
2019-05-20T23:34:15.468Z,70.88
2019-05-20T23:39:36.939Z,71.71
2019-05-20T23:44:58.973Z,71.96
2019-05-20T23:50:21.012Z,72.07
2019-05-20T23:55:43.429Z,72.10
